Time,TemperatureF,DewpointF,PressureIn,WindDirection,WindDirectionDegrees,WindSpeedMPH,WindSpeedGustMPH,Humidity,HourlyPrecipIn,Conditions,Clouds,dailyrainin,SoftwareType,DateUTC
2013-11-14 00:23:00,31.0,23.0,30.32,SSW,198,3.0,4.0,72,0.00,,,0.01,,2013-11-14 05:23:00,
2013-11-14 00:53:00,31.0,23.0,30.32,SSW,197,1.0,6.0,73,0.00,,,0.01,,2013-11-14 05:53:00,
2013-11-14 01:22:00,30.0,23.0,30.30,South,180,5.0,10.0,74,0.00,,,0.01,,2013-11-14 06:22:00,
2013-11-14 01:52:00,30.0,23.0,30.30,SSW,198,4.0,7.0,75,0.00,,,0.01,,2013-11-14 06:52:00,
2013-11-14 02:22:00,30.0,23.0,30.29,SSW,194,4.0,6.0,76,0.00,,,0.01,,2013-11-14 07:22:00,
2013-11-14 02:53:00,30.0,23.0,30.29,SSW,198,1.0,8.0,76,0.00,,,0.01,,2013-11-14 07:53:00,
2013-11-14 03:22:00,29.0,23.0,30.28,SSW,198,3.0,6.0,77,0.00,,,0.01,,2013-11-14 08:22:00,
2013-11-14 03:53:00,29.0,23.0,30.28,SSW,199,5.0,6.0,77,0.00,,,0.01,,2013-11-14 08:53:00,
2013-11-14 04:22:00,29.0,23.0,30.28,South,182,3.0,5.0,78,0.00,,,0.01,,2013-11-14 09:22:00,
2013-11-14 04:53:00,29.0,23.0,30.28,South,176,3.0,6.0,78,0.00,,,0.01,,2013-11-14 09:53:00,
2013-11-14 05:23:00,29.0,23.0,30.27,SSW,202,3.0,5.0,78,0.00,,,0.01,,2013-11-14 10:23:00,
2013-11-14 05:52:00,29.0,23.0,30.28,South,190,0.0,3.0,78,0.00,,,0.01,,2013-11-14 10:52:00,
2013-11-14 06:22:00,29.0,23.0,30.27,South,177,2.0,3.0,79,0.00,,,0.01,,2013-11-14 11:22:00,
2013-11-14 06:52:00,28.0,22.0,30.27,South,178,2.0,4.0,79,0.00,,,0.01,,2013-11-14 11:52:00,
2013-11-14 07:21:00,29.0,23.0,30.27,South,186,3.0,5.0,78,0.00,,,0.01,,2013-11-14 12:21:00,
2013-11-14 07:52:00,29.0,23.0,30.27,South,184,2.0,4.0,77,0.00,,,0.01,,2013-11-14 12:52:00,
2013-11-14 08:22:00,30.0,23.0,30.27,South,174,4.0,5.0,76,0.00,,,0.01,,2013-11-14 13:22:00,
2013-11-14 08:52:00,32.0,24.0,30.27,SSW,194,1.0,10.0,72,0.00,,,0.01,,2013-11-14 13:52:00,
2013-11-14 09:22:00,34.0,25.0,30.27,SW,215,6.0,13.0,68,0.00,,,0.01,,2013-11-14 14:22:00,
2013-11-14 09:52:00,36.0,25.0,30.27,SW,221,3.0,12.0,64,0.00,,,0.01,,2013-11-14 14:52:00,
2013-11-14 10:22:00,38.0,26.0,30.26,SSW,201,3.0,10.0,62,0.00,,,0.01,,2013-11-14 15:22:00,
2013-11-14 10:53:00,41.0,28.0,30.26,South,186,3.0,9.0,59,0.00,,,0.01,,2013-11-14 15:53:00,
2013-11-14 11:23:00,43.0,28.0,30.25,SSW,198,7.0,11.0,54,0.00,,,0.01,,2013-11-14 16:23:00,
2013-11-14 11:52:00,46.0,28.0,30.24,SSW,207,5.0,10.0,50,0.00,,,0.01,,2013-11-14 16:52:00,
2013-11-14 12:23:00,47.0,28.0,30.22,South,177,3.0,12.0,47,0.00,,,0.01,,2013-11-14 17:23:00,
2013-11-14 12:52:00,48.0,27.0,30.20,SSW,205,9.0,14.0,43,0.00,,,0.01,,2013-11-14 17:52:00,
2013-11-14 13:21:00,50.0,28.0,30.18,South,184,5.0,10.0,42,0.00,,,0.01,,2013-11-14 18:21:00,
2013-11-14 13:52:00,51.0,28.0,30.17,SSW,200,3.0,10.0,41,0.00,,,0.01,,2013-11-14 18:52:00,
2013-11-14 14:21:00,51.0,26.0,30.16,SSW,192,3.0,12.0,37,0.00,,,0.00,,2013-11-14 19:21:00,
2013-11-14 14:52:00,52.0,25.0,30.15,SSW,209,8.0,11.0,34,0.00,,,0.00,,2013-11-14 19:52:00,
2013-11-14 15:22:00,52.0,26.0,30.14,SSW,200,3.0,7.0,36,0.00,,,0.00,,2013-11-14 20:22:00,
2013-11-14 15:52:00,52.0,25.0,30.14,SSE,155,4.0,13.0,35,0.00,,,0.00,,2013-11-14 20:52:00,
2013-11-14 16:22:00,51.0,24.0,30.13,South,187,2.0,10.0,35,0.00,,,0.00,,2013-11-14 21:22:00,
2013-11-14 16:53:00,50.0,25.0,30.12,South,191,0.0,5.0,37,0.00,,,0.00,,2013-11-14 21:53:00,
2013-11-14 17:23:00,50.0,24.0,30.11,South,188,5.0,10.0,36,0.00,,,0.00,,2013-11-14 22:23:00,
2013-11-14 17:53:00,48.0,24.0,30.11,South,191,5.0,9.0,39,0.00,,,0.00,,2013-11-14 22:53:00,
2013-11-14 18:22:00,48.0,24.0,30.11,South,181,3.0,7.0,39,0.00,,,0.00,,2013-11-14 23:22:00,
2013-11-14 18:52:00,48.0,25.0,30.11,South,175,9.0,16.0,40,0.00,,,0.00,,2013-11-14 23:52:00,
2013-11-14 19:22:00,47.0,25.0,30.11,SSE,161,8.0,10.0,42,0.00,,,0.00,,2013-11-15 00:22:00,
2013-11-14 19:52:00,46.0,25.0,30.13,SSE,166,3.0,9.0,43,0.00,,,0.00,,2013-11-15 00:52:00,
2013-11-14 20:22:00,45.0,23.0,30.11,SSW,205,6.0,10.0,42,0.00,,,0.00,,2013-11-15 01:22:00,
2013-11-14 20:52:00,45.0,23.0,30.09,SE,146,6.0,10.0,42,0.00,,,0.00,,2013-11-15 01:52:00,
2013-11-14 21:22:00,44.0,23.0,30.10,SSE,155,2.0,5.0,43,0.00,,,0.00,,2013-11-15 02:22:00,
2013-11-14 21:52:00,44.0,24.0,30.11,South,175,0.0,3.0,45,0.00,,,0.00,,2013-11-15 02:52:00,
2013-11-14 22:22:00,42.0,24.0,30.11,SSW,198,1.0,6.0,48,0.00,,,0.00,,2013-11-15 03:22:00,
2013-11-14 22:54:00,41.0,23.0,30.10,South,180,2.0,4.0,49,0.00,,,0.00,,2013-11-15 03:54:00,
2013-11-14 23:24:00,41.0,24.0,30.11,South,178,2.0,5.0,50,0.00,,,0.00,,2013-11-15 04:24:00,
2013-11-14 23:53:00,41.0,24.0,30.11,SSW,197,1.0,4.0,51,0.00,,,0.00,,2013-11-15 04:53:00,